createdAt,value
2018-03-18T00:00:57.609Z,62.18
2018-03-18T00:01:57.651Z,62.18
2018-03-18T00:02:57.603Z,61.80
2018-03-18T00:03:57.569Z,61.61
2018-03-18T00:04:57.567Z,61.24
2018-03-18T00:05:57.568Z,61.43
2018-03-18T00:06:57.569Z,61.71
2018-03-18T00:07:57.555Z,61.33
2018-03-18T00:08:57.563Z,61.43
2018-03-18T00:09:57.581Z,61.61
2018-03-18T00:10:57.549Z,61.71
2018-03-18T00:11:57.561Z,61.33
2018-03-18T00:12:57.606Z,61.52
2018-03-18T00:13:57.629Z,61.61
2018-03-18T00:14:57.508Z,61.71
2018-03-18T00:15:57.647Z,61.61
2018-03-18T00:16:57.499Z,61.24
2018-03-18T00:17:57.557Z,61.52
2018-03-18T00:18:57.517Z,61.43
2018-03-18T00:19:57.533Z,61.61
2018-03-18T00:20:57.500Z,61.71
2018-03-18T00:21:57.476Z,61.43
2018-03-18T00:22:57.497Z,61.52
2018-03-18T00:23:57.504Z,61.71
2018-03-18T00:24:57.603Z,60.96
2018-03-18T00:25:57.510Z,61.24
2018-03-18T00:26:57.527Z,61.33
2018-03-18T00:27:57.516Z,61.52
2018-03-18T00:28:57.574Z,61.24
2018-03-18T00:29:57.492Z,61.43
2018-03-18T00:30:57.527Z,61.61
2018-03-18T00:31:57.528Z,61.43
2018-03-18T00:32:57.469Z,61.15
2018-03-18T00:33:57.449Z,61.61
2018-03-18T00:34:57.474Z,61.61
2018-03-18T00:35:57.459Z,61.61
2018-03-18T00:36:57.485Z,61.61
2018-03-18T00:37:57.442Z,61.71
2018-03-18T00:38:57.546Z,61.71
2018-03-18T00:39:57.385Z,61.61
2018-03-18T00:40:57.440Z,61.43
2018-03-18T00:41:57.401Z,61.05
2018-03-18T00:42:57.426Z,60.77
2018-03-18T00:43:57.412Z,61.15
2018-03-18T00:44:57.439Z,61.33
2018-03-18T00:45:57.423Z,61.61
2018-03-18T00:46:57.376Z,61.71
2018-03-18T00:47:57.354Z,61.43
2018-03-18T00:48:57.347Z,61.61
2018-03-18T00:49:57.364Z,61.33
2018-03-18T00:50:57.376Z,61.58
2018-03-18T00:51:57.389Z,61.24
2018-03-18T00:52:57.357Z,61.24
2018-03-18T00:53:57.374Z,61.52
2018-03-18T00:54:57.345Z,61.33
2018-03-18T00:55:57.357Z,61.43
2018-03-18T00:56:57.298Z,61.33
2018-03-18T00:57:57.348Z,61.52
2018-03-18T00:58:57.300Z,61.24
2018-03-18T00:59:57.312Z,61.52
2018-03-18T01:00:57.292Z,61.52
2018-03-18T01:01:57.408Z,61.61
2018-03-18T01:02:57.358Z,61.52
2018-03-18T01:03:57.279Z,60.96
2018-03-18T01:04:57.329Z,61.33
2018-03-18T01:05:58.218Z,61.02
2018-03-18T01:06:57.727Z,61.30
2018-03-18T01:07:57.363Z,61.58
2018-03-18T01:08:57.429Z,61.21
2018-03-18T01:09:57.271Z,61.90
2018-03-18T01:10:57.295Z,61.30
2018-03-18T01:11:57.274Z,61.30
2018-03-18T01:12:57.289Z,61.61
2018-03-18T01:13:57.287Z,61.52
2018-03-18T01:14:57.290Z,61.05
2018-03-18T01:15:57.287Z,60.67
2018-03-18T01:16:57.218Z,61.40
2018-03-18T01:17:57.255Z,61.30
2018-03-18T01:18:57.197Z,61.40
2018-03-18T01:19:57.207Z,61.30
2018-03-18T01:20:57.233Z,61.58
2018-03-18T01:21:57.213Z,61.77
2018-03-18T01:22:57.197Z,61.49
2018-03-18T01:23:57.261Z,61.49
2018-03-18T01:24:57.249Z,61.30
2018-03-18T01:25:57.381Z,60.83
2018-03-18T01:26:57.209Z,60.64
2018-03-18T01:27:57.166Z,60.83
2018-03-18T01:28:57.192Z,60.74
2018-03-18T01:29:57.172Z,60.83
2018-03-18T01:30:57.153Z,61.21
2018-03-18T01:31:57.143Z,61.40
2018-03-18T01:32:57.206Z,61.49
2018-03-18T01:33:57.164Z,61.30
2018-03-18T01:34:57.195Z,61.40
2018-03-18T01:35:57.141Z,61.11
2018-03-18T01:36:57.144Z,61.68
2018-03-18T01:37:57.140Z,61.58
2018-03-18T01:38:57.104Z,61.77
2018-03-18T01:39:57.175Z,61.87
2018-03-18T01:40:57.114Z,61.87
2018-03-18T01:41:57.159Z,61.68
2018-03-18T01:42:57.105Z,61.77
2018-03-18T01:43:57.069Z,61.49
2018-03-18T01:44:57.185Z,61.49
2018-03-18T01:45:57.075Z,61.87
2018-03-18T01:46:57.049Z,61.68
2018-03-18T01:47:57.059Z,61.87
2018-03-18T01:48:57.064Z,62.44
2018-03-18T01:49:57.120Z,61.77
2018-03-18T01:50:57.090Z,62.25
2018-03-18T01:51:57.070Z,62.44
2018-03-18T01:52:57.045Z,62.44
2018-03-18T01:53:57.136Z,62.53
2018-03-18T01:54:57.020Z,62.53
2018-03-18T01:55:57.049Z,62.62
2018-03-18T01:56:57.010Z,62.34
2018-03-18T01:57:57.088Z,62.44
2018-03-18T01:58:57.010Z,62.44
2018-03-18T01:59:56.998Z,63.19
2018-03-18T02:00:56.992Z,63.10
2018-03-18T02:01:57.008Z,63.38
2018-03-18T02:02:56.956Z,63.00
2018-03-18T02:03:56.975Z,63.38
2018-03-18T02:04:57.007Z,63.38
2018-03-18T02:05:56.988Z,63.29
2018-03-18T02:06:57.040Z,63.10
2018-03-18T02:07:56.960Z,63.19
2018-03-18T02:08:56.944Z,62.91
2018-03-18T02:09:56.944Z,63.57
2018-03-18T02:10:56.923Z,63.57
2018-03-18T02:11:56.944Z,63.85
2018-03-18T02:12:56.914Z,64.14
2018-03-18T02:13:56.945Z,64.04
2018-03-18T02:14:56.908Z,64.23
2018-03-18T02:15:56.929Z,64.04
2018-03-18T02:16:57.724Z,63.95
2018-03-18T02:17:56.931Z,63.76
2018-03-18T02:18:56.936Z,64.04
2018-03-18T02:19:56.932Z,64.04
2018-03-18T02:20:56.870Z,64.23
2018-03-18T02:21:56.867Z,64.14
2018-03-18T02:22:56.923Z,64.14
2018-03-18T02:23:56.914Z,63.95
2018-03-18T02:24:56.967Z,63.76
2018-03-18T02:25:56.908Z,63.76
2018-03-18T02:26:56.908Z,63.76
2018-03-18T02:27:56.874Z,63.95
2018-03-18T02:28:56.886Z,64.23
2018-03-18T02:29:56.850Z,63.95
2018-03-18T02:30:56.849Z,63.85
2018-03-18T02:31:56.929Z,64.61
2018-03-18T02:32:56.955Z,63.76
2018-03-18T02:33:56.957Z,63.76
2018-03-18T02:34:56.785Z,63.95
2018-03-18T02:35:56.823Z,63.76
2018-03-18T02:36:56.792Z,63.85
2018-03-18T02:37:56.840Z,63.95
2018-03-18T02:38:56.844Z,63.76
2018-03-18T02:39:56.810Z,63.85
2018-03-18T02:40:56.780Z,64.04
2018-03-18T02:41:56.847Z,63.85
2018-03-18T02:42:56.780Z,63.95
2018-03-18T02:43:56.787Z,64.14
2018-03-18T02:44:56.755Z,63.95
2018-03-18T02:45:56.774Z,63.85
2018-03-18T02:46:56.726Z,63.95
2018-03-18T02:47:56.761Z,63.85
2018-03-18T02:48:56.734Z,64.14
2018-03-18T02:49:56.896Z,63.95
2018-03-18T02:50:56.760Z,64.04
2018-03-18T02:51:56.713Z,64.14
2018-03-18T02:52:57.226Z,63.76
2018-03-18T02:53:56.977Z,64.04
2018-03-18T02:54:56.933Z,63.85
2018-03-18T02:55:57.223Z,64.32
2018-03-18T02:56:56.715Z,64.23
2018-03-18T02:57:56.823Z,64.32
2018-03-18T02:58:56.791Z,63.85
2018-03-18T02:59:56.718Z,63.95
2018-03-18T03:00:56.784Z,63.76
2018-03-18T03:01:56.927Z,63.95
2018-03-18T03:02:56.753Z,64.14
2018-03-18T03:03:56.810Z,63.95
2018-03-18T03:04:56.868Z,63.95
2018-03-18T03:05:56.647Z,64.23
2018-03-18T03:06:56.796Z,63.95
2018-03-18T03:07:56.789Z,63.95
2018-03-18T03:08:56.631Z,63.85
2018-03-18T03:09:56.650Z,63.95
2018-03-18T03:10:56.697Z,63.38
2018-03-18T03:11:56.644Z,63.38
2018-03-18T03:12:56.688Z,63.48
2018-03-18T03:13:56.733Z,63.95
2018-03-18T03:14:56.678Z,64.04
2018-03-18T03:15:56.658Z,64.23
2018-03-18T03:16:56.662Z,64.04
2018-03-18T03:17:56.580Z,63.95
2018-03-18T03:18:56.614Z,64.23
2018-03-18T03:19:56.574Z,63.38
2018-03-18T03:20:56.584Z,64.04
2018-03-18T03:21:56.590Z,63.85
2018-03-18T03:22:56.592Z,63.76
2018-03-18T03:23:56.544Z,64.04
2018-03-18T03:24:56.536Z,62.81
2018-03-18T03:25:56.523Z,63.29
2018-03-18T03:26:56.592Z,63.38
2018-03-18T03:27:56.574Z,63.29
2018-03-18T03:28:56.603Z,63.19
2018-03-18T03:29:56.606Z,63.38
2018-03-18T03:30:56.511Z,63.29
2018-03-18T03:31:56.547Z,63.19
2018-03-18T03:32:56.572Z,63.19
2018-03-18T03:33:56.497Z,63.19
2018-03-18T03:34:56.541Z,63.19
2018-03-18T03:35:56.551Z,62.81
2018-03-18T03:36:56.518Z,63.19
2018-03-18T03:37:56.520Z,63.19
2018-03-18T03:38:56.507Z,63.00
2018-03-18T03:39:56.573Z,63.29
2018-03-18T03:40:56.528Z,63.67
2018-03-18T03:41:56.519Z,63.10
2018-03-18T03:42:56.567Z,63.38
2018-03-18T03:43:56.545Z,63.29
2018-03-18T03:44:56.526Z,62.91
2018-03-18T03:45:56.474Z,62.91
2018-03-18T03:46:56.522Z,63.19
2018-03-18T03:47:56.464Z,63.07
2018-03-18T03:48:56.495Z,63.16
2018-03-18T03:49:56.538Z,63.35
2018-03-18T03:50:56.430Z,63.16
2018-03-18T03:51:56.430Z,63.35
2018-03-18T03:52:56.416Z,62.97
2018-03-18T03:53:56.498Z,62.78
2018-03-18T03:54:56.436Z,63.10
2018-03-18T03:55:56.401Z,63.07
2018-03-18T03:56:56.403Z,62.88
2018-03-18T03:57:56.403Z,62.97
2018-03-18T03:58:56.426Z,63.35
2018-03-18T03:59:56.370Z,63.35
2018-03-18T04:00:56.347Z,63.45
2018-03-18T04:01:56.366Z,63.35
2018-03-18T04:02:56.349Z,63.26
2018-03-18T04:03:56.377Z,63.26
2018-03-18T04:04:56.401Z,63.26
2018-03-18T04:05:56.317Z,63.16
2018-03-18T04:06:56.420Z,63.16
2018-03-18T04:07:56.349Z,63.35
2018-03-18T04:08:56.298Z,62.91
2018-03-18T04:09:56.316Z,63.07
2018-03-18T04:10:56.283Z,63.16
2018-03-18T04:11:56.346Z,63.35
2018-03-18T04:12:56.299Z,63.45
2018-03-18T04:13:56.310Z,63.45
2018-03-18T04:14:56.257Z,63.92
2018-03-18T04:15:56.318Z,63.92
2018-03-18T04:16:56.296Z,63.73
2018-03-18T04:17:56.259Z,63.73
2018-03-18T04:18:56.251Z,63.92
2018-03-18T04:19:56.384Z,63.92
2018-03-18T04:20:56.273Z,64.20
2018-03-18T04:21:56.279Z,63.92
2018-03-18T04:22:56.223Z,64.01
2018-03-18T04:23:56.254Z,64.11
2018-03-18T04:24:56.235Z,63.92
2018-03-18T04:25:56.306Z,63.82
2018-03-18T04:26:56.224Z,63.73
2018-03-18T04:27:56.255Z,63.16
2018-03-18T04:28:56.203Z,63.92
2018-03-18T04:29:56.193Z,64.01
2018-03-18T04:30:56.180Z,63.92
2018-03-18T04:31:56.243Z,64.01
2018-03-18T04:32:56.270Z,64.20
2018-03-18T04:33:56.193Z,63.73
2018-03-18T04:34:56.187Z,63.73
2018-03-18T04:35:56.191Z,63.92
2018-03-18T04:36:56.162Z,64.01
2018-03-18T04:37:56.218Z,63.82
2018-03-18T04:38:56.166Z,64.01
2018-03-18T04:39:56.139Z,64.11
2018-03-18T04:40:56.124Z,64.11
2018-03-18T04:41:56.143Z,64.48
2018-03-18T04:42:56.241Z,64.48
2018-03-18T04:43:56.154Z,64.48
2018-03-18T04:44:56.126Z,64.48
2018-03-18T04:45:56.156Z,64.58
2018-03-18T04:46:56.108Z,64.76
2018-03-18T04:47:56.150Z,64.48
2018-03-18T04:48:56.118Z,64.58
2018-03-18T04:49:56.106Z,64.58
2018-03-18T04:50:56.086Z,64.48
2018-03-18T04:51:56.164Z,64.67
2018-03-18T04:52:56.089Z,64.48
2018-03-18T04:53:56.078Z,64.48
2018-03-18T04:54:56.091Z,64.48
2018-03-18T04:55:56.082Z,64.48
2018-03-18T04:56:56.077Z,64.58
2018-03-18T04:57:56.032Z,64.67
2018-03-18T04:58:56.060Z,64.48
2018-03-18T04:59:56.040Z,64.76
2018-03-18T05:00:56.022Z,64.48
2018-03-18T05:01:56.032Z,64.58
2018-03-18T05:02:55.998Z,64.29
2018-03-18T05:03:56.017Z,64.58
2018-03-18T05:04:55.984Z,64.39
2018-03-18T05:05:56.006Z,64.39
2018-03-18T05:06:55.988Z,64.67
2018-03-18T05:07:56.041Z,64.67
2018-03-18T05:08:55.999Z,64.86
2018-03-18T05:09:56.003Z,64.58
2018-03-18T05:10:55.991Z,64.29
2018-03-18T05:11:56.025Z,64.58
2018-03-18T05:12:55.940Z,64.67
2018-03-18T05:13:55.968Z,64.95
2018-03-18T05:14:55.941Z,64.76
2018-03-18T05:15:55.981Z,64.67
2018-03-18T05:16:56.056Z,64.67
2018-03-18T05:17:55.958Z,65.14
2018-03-18T05:18:55.993Z,64.86
2018-03-18T05:19:55.969Z,64.86
2018-03-18T05:20:55.906Z,64.29
2018-03-18T05:21:55.929Z,64.67
2018-03-18T05:22:55.901Z,64.29
2018-03-18T05:23:55.927Z,64.39
2018-03-18T05:24:55.893Z,64.58
2018-03-18T05:25:55.875Z,64.39
2018-03-18T05:26:55.885Z,64.01
2018-03-18T05:27:55.895Z,64.58
2018-03-18T05:28:55.873Z,64.29
2018-03-18T05:29:55.901Z,64.20
2018-03-18T05:30:55.865Z,64.39
2018-03-18T05:31:55.882Z,64.48
2018-03-18T05:32:55.882Z,64.67
2018-03-18T05:33:55.859Z,64.58
2018-03-18T05:34:55.833Z,64.58
2018-03-18T05:35:55.865Z,64.29
2018-03-18T05:36:55.821Z,64.29
2018-03-18T05:37:55.832Z,64.11
2018-03-18T05:38:55.853Z,64.11
2018-03-18T05:39:55.806Z,64.48
2018-03-18T05:40:55.822Z,64.39
2018-03-18T05:41:55.784Z,64.48
2018-03-18T05:42:55.822Z,64.95
2018-03-18T05:43:55.774Z,64.20
2018-03-18T05:44:55.793Z,64.48
2018-03-18T05:45:55.779Z,64.58
2018-03-18T05:46:55.783Z,64.48
2018-03-18T05:47:55.764Z,64.48
2018-03-18T05:48:55.778Z,64.39
2018-03-18T05:49:55.747Z,64.39
2018-03-18T05:50:55.735Z,64.48
2018-03-18T05:51:55.727Z,64.48
2018-03-18T05:52:55.744Z,63.82
2018-03-18T05:53:55.763Z,64.11
2018-03-18T05:54:55.739Z,63.73
2018-03-18T05:55:55.746Z,63.92
2018-03-18T05:56:55.729Z,63.82
2018-03-18T05:57:55.752Z,64.01
2018-03-18T05:58:55.691Z,63.82
2018-03-18T05:59:55.696Z,63.92
2018-03-18T06:00:55.679Z,64.01
2018-03-18T06:01:55.758Z,64.01
2018-03-18T06:02:55.691Z,64.11
2018-03-18T06:03:56.225Z,63.92
2018-03-18T06:04:55.691Z,64.01
2018-03-18T06:05:55.668Z,63.63
2018-03-18T06:06:55.678Z,64.20
2018-03-18T06:07:55.657Z,64.11
2018-03-18T06:08:55.665Z,64.11
2018-03-18T06:09:55.704Z,64.01
2018-03-18T06:10:55.681Z,63.92
2018-03-18T06:11:55.698Z,63.73
2018-03-18T06:12:55.672Z,63.92
2018-03-18T06:13:55.605Z,64.01
2018-03-18T06:14:55.658Z,63.73
2018-03-18T06:15:55.622Z,63.92
2018-03-18T06:16:55.593Z,63.92
2018-03-18T06:17:55.601Z,63.82
2018-03-18T06:18:55.617Z,63.54
2018-03-18T06:19:55.610Z,63.35
2018-03-18T06:20:55.598Z,63.35
2018-03-18T06:21:55.610Z,62.78
2018-03-18T06:22:55.617Z,62.69
2018-03-18T06:23:55.630Z,62.97
2018-03-18T06:24:55.617Z,63.35
2018-03-18T06:25:55.559Z,62.78
2018-03-18T06:26:55.572Z,62.78
2018-03-18T06:27:55.559Z,62.88
2018-03-18T06:28:55.570Z,63.07
2018-03-18T06:29:55.580Z,63.29
2018-03-18T06:30:55.605Z,62.53
2018-03-18T06:31:55.578Z,63.07
2018-03-18T06:32:55.564Z,62.50
2018-03-18T06:33:55.582Z,63.10
2018-03-18T06:34:55.534Z,62.72
2018-03-18T06:35:56.234Z,62.72
2018-03-18T06:36:55.530Z,63.19
2018-03-18T06:37:55.604Z,62.06
2018-03-18T06:38:55.609Z,62.53
2018-03-18T06:39:55.525Z,62.15
2018-03-18T06:40:55.540Z,61.87
2018-03-18T06:41:55.482Z,62.02
2018-03-18T06:42:55.471Z,62.53
2018-03-18T06:43:55.489Z,62.31
2018-03-18T06:44:55.471Z,62.34
2018-03-18T06:45:55.502Z,62.72
2018-03-18T06:46:55.500Z,62.62
2018-03-18T06:47:55.474Z,62.53
2018-03-18T06:48:55.509Z,62.72
2018-03-18T06:49:55.473Z,62.25
2018-03-18T06:50:55.422Z,61.96
2018-03-18T06:51:55.482Z,62.06
2018-03-18T06:52:55.428Z,62.53
2018-03-18T06:53:55.433Z,62.53
2018-03-18T06:54:55.488Z,62.06
2018-03-18T06:55:55.404Z,62.06
2018-03-18T06:56:55.439Z,62.06
2018-03-18T06:57:55.378Z,62.53
2018-03-18T06:58:55.390Z,62.06
2018-03-18T06:59:55.371Z,62.15
2018-03-18T07:00:55.426Z,62.15
2018-03-18T07:01:55.378Z,62.15
2018-03-18T07:02:55.399Z,61.68
2018-03-18T07:03:55.395Z,61.68
2018-03-18T23:00:57.912Z,48.76
2018-03-18T23:01:57.878Z,48.67
2018-03-18T23:02:57.878Z,48.95
2018-03-18T23:03:57.876Z,49.05
2018-03-18T23:04:57.893Z,48.95
2018-03-18T23:05:57.866Z,49.14
2018-03-18T23:06:57.865Z,49.24
2018-03-18T23:07:57.870Z,49.33
2018-03-18T23:08:57.841Z,49.52
2018-03-18T23:09:57.934Z,49.14
2018-03-18T23:10:57.841Z,49.71
2018-03-18T23:11:57.838Z,49.43
2018-03-18T23:12:57.828Z,49.52
2018-03-18T23:13:57.828Z,49.52
2018-03-18T23:14:57.822Z,49.52
2018-03-18T23:15:57.810Z,49.43
2018-03-18T23:16:57.815Z,49.80
2018-03-18T23:17:57.806Z,49.80
2018-03-18T23:18:57.798Z,49.80
2018-03-18T23:19:57.794Z,49.52
2018-03-18T23:20:57.795Z,49.33
2018-03-18T23:21:57.784Z,49.71
2018-03-18T23:22:57.779Z,49.52
2018-03-18T23:23:57.774Z,49.43
2018-03-18T23:24:57.790Z,49.43
2018-03-18T23:25:57.763Z,49.90
2018-03-18T23:26:57.760Z,49.90
2018-03-18T23:27:57.758Z,49.71
2018-03-18T23:28:57.756Z,49.80
2018-03-18T23:29:57.768Z,49.71
2018-03-18T23:30:57.800Z,49.99
2018-03-18T23:31:57.743Z,49.90
2018-03-18T23:32:57.731Z,49.71
2018-03-18T23:33:57.725Z,49.62
2018-03-18T23:34:57.741Z,49.80
2018-03-18T23:35:57.712Z,49.62
2018-03-18T23:36:57.723Z,49.80
2018-03-18T23:37:57.710Z,50.18
2018-03-18T23:38:57.707Z,49.90
2018-03-18T23:39:57.700Z,49.71
2018-03-18T23:40:57.694Z,49.62
2018-03-18T23:41:57.695Z,49.90
2018-03-18T23:42:57.689Z,49.80
2018-03-18T23:43:57.686Z,49.99
2018-03-18T23:44:57.668Z,49.99
2018-03-18T23:45:57.664Z,50.27
2018-03-18T23:46:57.674Z,50.18
2018-03-18T23:47:57.654Z,50.37
2018-03-18T23:48:57.656Z,50.27
2018-03-18T23:49:57.651Z,50.27
2018-03-18T23:50:57.669Z,50.09
2018-03-18T23:51:57.637Z,50.75
2018-03-18T23:52:57.635Z,50.65
2018-03-18T23:53:57.620Z,50.94
2018-03-18T23:54:57.627Z,50.18
2018-03-18T23:55:57.623Z,50.18
2018-03-18T23:56:57.621Z,49.71
2018-03-18T23:57:57.610Z,50.65
2018-03-18T23:58:57.610Z,50.27
2018-03-18T23:59:57.598Z,50.46
